createdAt,value
2022-08-03T00:04:07.429Z,100413
2022-08-03T00:09:56.757Z,100413
2022-08-03T00:15:46.612Z,100408
2022-08-03T00:21:36.064Z,100401
2022-08-03T00:27:25.472Z,100399
2022-08-03T00:33:18.183Z,100405
2022-08-03T00:39:11.672Z,100406
2022-08-03T00:45:06.062Z,100396
2022-08-03T00:50:57.334Z,100404
2022-08-03T00:57:03.153Z,100388
2022-08-03T01:02:52.883Z,100388
2022-08-03T01:08:45.825Z,100388
2022-08-03T01:14:38.962Z,100390
2022-08-03T01:20:31.088Z,100387
2022-08-03T01:26:24.379Z,100381
2022-08-03T01:33:05.421Z,100379
2022-08-03T01:38:58.151Z,100386
2022-08-03T01:44:48.691Z,100389
2022-08-03T01:50:40.559Z,100385
2022-08-03T01:56:32.288Z,100385
2022-08-03T02:02:38.662Z,100384
2022-08-03T02:08:30.350Z,100381
2022-08-03T02:14:22.615Z,100375
2022-08-03T02:20:14.945Z,100382
2022-08-03T02:26:06.071Z,100376
2022-08-03T02:31:58.647Z,100370
2022-08-03T02:37:53.515Z,100374
2022-08-03T02:44:10.241Z,100379
2022-08-03T02:50:00.800Z,100373
2022-08-03T02:55:53.128Z,100378
2022-08-03T03:01:46.294Z,100362
2022-08-03T03:07:56.987Z,100359
2022-08-03T03:14:58.076Z,100364
2022-08-03T03:20:50.946Z,100364
2022-08-03T03:26:48.070Z,100370
2022-08-03T03:32:41.089Z,100372
2022-08-03T03:38:41.912Z,100375
2022-08-03T03:44:35.514Z,100372
2022-08-03T03:50:28.372Z,100376
2022-08-03T03:56:22.275Z,100377
2022-08-03T04:02:22.811Z,100371
2022-08-03T04:08:30.726Z,100366
2022-08-03T04:14:25.318Z,100368
2022-08-03T04:20:17.405Z,100362
2022-08-03T04:26:10.302Z,100365
2022-08-03T04:32:06.045Z,100375
2022-08-03T04:38:13.765Z,100376
2022-08-03T04:44:08.144Z,100380
2022-08-03T04:50:20.998Z,100379
2022-08-03T04:56:13.185Z,100380
2022-08-03T05:02:12.816Z,100383
2022-08-03T05:08:16.789Z,100382
2022-08-03T05:14:31.538Z,100388
2022-08-03T05:20:30.483Z,100396
2022-08-03T05:26:31.036Z,100396
2022-08-03T05:32:23.679Z,100391
2022-08-03T05:38:28.419Z,100391
2022-08-03T05:44:24.419Z,100387
2022-08-03T05:50:16.761Z,100389
2022-08-03T05:56:21.924Z,100395
2022-08-03T06:02:14.855Z,100396
2022-08-03T06:08:09.767Z,100394
2022-08-03T06:14:12.797Z,100396
2022-08-03T06:20:13.348Z,100401
2022-08-03T06:26:22.714Z,100402
2022-08-03T06:32:22.642Z,100400
2022-08-03T06:38:18.632Z,100404
2022-08-03T06:44:23.058Z,100399
2022-08-03T06:50:28.113Z,100411
2022-08-03T06:56:19.307Z,100412
2022-08-03T07:02:12.975Z,100413
2022-08-03T07:08:35.247Z,100411
2022-08-03T07:14:26.075Z,100408
2022-08-03T07:20:21.544Z,100408
2022-08-03T07:26:21.028Z,100407
2022-08-03T07:32:11.881Z,100406
2022-08-03T07:38:00.793Z,100406
2022-08-03T07:43:55.931Z,100411
2022-08-03T07:49:51.486Z,100405
2022-08-03T07:55:43.403Z,100411
2022-08-03T08:01:35.029Z,100402
2022-08-03T08:07:27.142Z,100397
2022-08-03T08:13:18.884Z,100387
2022-08-03T08:19:16.385Z,100387
2022-08-03T08:25:22.911Z,100385
2022-08-03T08:31:14.548Z,100379
2022-08-03T08:37:07.998Z,100378
2022-08-03T08:43:02.176Z,100376
2022-08-03T08:48:54.884Z,100376
2022-08-03T08:54:48.512Z,100376
2022-08-03T09:00:42.656Z,100371
2022-08-03T09:06:36.634Z,100372
2022-08-03T09:12:45.280Z,100375
2022-08-03T09:18:35.972Z,100372
2022-08-03T09:24:45.549Z,100366
2022-08-03T09:31:07.050Z,100360
2022-08-03T09:36:59.059Z,100361
2022-08-03T09:42:51.931Z,100361
2022-08-03T09:48:43.499Z,100353
2022-08-03T09:54:35.375Z,100352
2022-08-03T10:00:27.835Z,100350
2022-08-03T10:06:19.844Z,100351
2022-08-03T10:12:18.623Z,100342
2022-08-03T10:18:10.014Z,100339
2022-08-03T10:24:02.771Z,100340
2022-08-03T10:29:54.813Z,100335
2022-08-03T10:35:45.535Z,100320
2022-08-03T10:41:37.471Z,100323
2022-08-03T10:47:32.155Z,100308
2022-08-03T10:53:26.124Z,100306
2022-08-03T10:59:31.520Z,100302
2022-08-03T11:05:24.244Z,100289
2022-08-03T11:11:16.008Z,100288
2022-08-03T11:17:07.510Z,100277
2022-08-03T11:23:06.736Z,100283
2022-08-03T11:28:59.494Z,100273
2022-08-03T11:34:51.789Z,100275
2022-08-03T11:40:43.186Z,100269
2022-08-03T11:46:34.730Z,100273
2022-08-03T11:52:31.713Z,100269
2022-08-03T11:59:24.116Z,100258
2022-08-03T12:05:12.028Z,100266
2022-08-03T12:11:04.898Z,100261
2022-08-03T12:16:55.997Z,100252
2022-08-03T12:22:49.688Z,100248
2022-08-03T12:28:49.708Z,100245
2022-08-03T12:34:47.291Z,100242
2022-08-03T12:40:38.728Z,100243
2022-08-03T12:46:30.055Z,100233
2022-08-03T12:52:21.651Z,100234
2022-08-03T12:58:19.035Z,100230
2022-08-03T13:04:21.450Z,100238
2022-08-03T13:10:19.372Z,100235
2022-08-03T13:16:10.071Z,100224
2022-08-03T13:22:08.024Z,100229
2022-08-03T13:28:15.582Z,100227
2022-08-03T13:34:07.727Z,100213
2022-08-03T13:40:08.243Z,100216
2022-08-03T13:46:04.503Z,100207
2022-08-03T13:51:56.024Z,100200
2022-08-03T13:58:09.539Z,100189
2022-08-03T14:04:00.407Z,100185
2022-08-03T14:09:50.970Z,100179
2022-08-03T14:15:42.502Z,100173
2022-08-03T14:21:43.549Z,100167
2022-08-03T14:27:54.808Z,100159
2022-08-03T14:33:46.763Z,100160
2022-08-03T14:40:08.114Z,100151
2022-08-03T14:45:59.143Z,100145
2022-08-03T14:51:56.481Z,100134
2022-08-03T14:57:45.584Z,100132
2022-08-03T15:03:36.288Z,100134
2022-08-03T15:09:27.342Z,100131
2022-08-03T15:15:18.217Z,100122
2022-08-03T15:21:48.178Z,100117
2022-08-03T15:28:07.331Z,100106
2022-08-03T15:33:56.934Z,100101
2022-08-03T15:40:05.399Z,100093
2022-08-03T15:46:31.296Z,100085
2022-08-03T15:52:20.877Z,100088
2022-08-03T15:59:16.637Z,100081
2022-08-03T16:05:04.368Z,100080
2022-08-03T16:10:56.909Z,100063
2022-08-03T16:16:50.910Z,100073
2022-08-03T16:22:46.179Z,100063
2022-08-03T16:28:37.988Z,100061
2022-08-03T16:34:30.620Z,100058
2022-08-03T16:40:22.965Z,100053
2022-08-03T16:46:14.719Z,100060
2022-08-03T16:52:08.683Z,100050
2022-08-03T16:58:07.590Z,100056
2022-08-03T17:04:07.443Z,100056
2022-08-03T17:10:08.387Z,100053
2022-08-03T17:16:04.375Z,100054
2022-08-03T17:22:01.422Z,100056
2022-08-03T17:28:59.218Z,100052
2022-08-03T17:34:59.027Z,100061
2022-08-03T17:40:57.407Z,100059
2022-08-03T17:47:00.476Z,100059
2022-08-03T17:52:57.021Z,100063
2022-08-03T17:59:02.317Z,100059
2022-08-03T18:05:16.154Z,100057
2022-08-03T20:56:06.312Z,100107
2022-08-03T21:02:34.123Z,100107
2022-08-03T21:08:54.764Z,100107
2022-08-03T21:16:02.807Z,100108
2022-08-03T21:30:00.453Z,100098
2022-08-03T21:36:07.192Z,100099
2022-08-03T21:42:19.546Z,100099
2022-08-03T21:48:53.303Z,100096
2022-08-03T21:56:02.002Z,100099
2022-08-03T22:02:24.717Z,100089
2022-08-03T22:08:34.678Z,100084
2022-08-03T22:14:38.826Z,100089
2022-08-03T22:20:30.571Z,100094
2022-08-03T22:33:04.944Z,100086
2022-08-03T22:39:00.943Z,100090
2022-08-03T22:44:54.294Z,100085
2022-08-03T22:50:49.918Z,100086
2022-08-03T23:03:00.021Z,100094
2022-08-03T23:08:57.865Z,100093
2022-08-03T23:15:08.063Z,100092
2022-08-03T23:21:19.172Z,100093
2022-08-03T23:28:15.422Z,100089
2022-08-03T23:34:22.039Z,100089
2022-08-03T23:40:17.206Z,100085
2022-08-03T23:46:12.576Z,100097
2022-08-03T23:52:25.540Z,100090
2022-08-03T23:58:36.218Z,100091
